Time;durP1;ratioP1;P1;durP2;ratioP2;P2;SDS_P1;SDS_P2;PMS_P1;PMS_P2;Temp;Humidity;BMP_temperature;BMP_pressure;BME280_temperature;BME280_humidity;BME280_pressure;Samples;Min_cycle;Max_cycle;Signal;HPM_P1;HPM_P2
2023/04/21 00:01:11;;;;;;;15.90;13.48;;;11.00;99.90;;;;;;4975198;28;20033;-91
2023/04/21 00:03:38;;;;;;;16.90;14.38;;;11.10;99.90;;;;;;4975677;28;20037;-91
2023/04/21 00:06:08;;;;;;;14.88;13.38;;;11.10;99.90;;;;;;4975722;28;20818;-90
2023/04/21 00:08:39;;;;;;;15.40;13.80;;;11.00;99.90;;;;;;4975555;28;20109;-92
2023/04/21 00:11:08;;;;;;;15.60;13.20;;;11.00;99.90;;;;;;4958164;28;20323;-91
2023/04/21 00:13:35;;;;;;;17.83;14.35;;;11.10;99.90;;;;;;4975865;28;20030;-91
2023/04/21 00:16:01;;;;;;;16.75;14.75;;;11.10;99.90;;;;;;4975117;28;20030;-90
2023/04/21 00:18:27;;;;;;;15.15;13.55;;;11.10;99.90;;;;;;4975404;28;20108;-90
2023/04/21 00:20:53;;;;;;;16.00;13.55;;;11.20;99.90;;;;;;4975931;28;20027;-91
2023/04/21 00:23:18;;;;;;;15.82;14.13;;;11.20;99.90;;;;;;4975372;28;20395;-91
2023/04/21 00:25:44;;;;;;;15.18;13.50;;;11.30;99.90;;;;;;4974709;28;20027;-91
2023/04/21 00:28:10;;;;;;;15.60;13.23;;;11.30;99.90;;;;;;4957942;28;20031;-91
2023/04/21 00:30:35;;;;;;;17.80;14.43;;;11.20;99.90;;;;;;4958043;28;20090;-91
2023/04/21 00:33:01;;;;;;;16.88;15.07;;;11.30;99.90;;;;;;4958018;28;20460;-90
2023/04/21 00:35:26;;;;;;;15.57;13.65;;;11.40;99.90;;;;;;4958083;28;20023;-91
2023/04/21 00:37:52;;;;;;;15.30;13.70;;;11.40;99.90;;;;;;4975148;28;20030;-91
2023/04/21 00:40:18;;;;;;;16.23;13.80;;;11.30;99.90;;;;;;4975354;28;20022;-91
2023/04/21 00:42:44;;;;;;;17.67;13.88;;;11.40;99.90;;;;;;4957485;28;20031;-91
2023/04/21 00:45:10;;;;;;;16.10;13.65;;;11.50;99.90;;;;;;4957269;28;20101;-91
2023/04/21 00:47:35;;;;;;;16.40;14.25;;;11.50;99.90;;;;;;4939035;29;20082;-91
2023/04/21 00:50:03;;;;;;;16.17;14.48;;;11.50;99.90;;;;;;4955320;29;20027;-90
2023/04/21 00:52:29;;;;;;;15.48;13.85;;;11.40;99.90;;;;;;4938866;29;20143;-91
2023/04/21 00:54:56;;;;;;;15.85;14.15;;;11.30;99.90;;;;;;4938447;29;20461;-90
2023/04/21 00:57:22;;;;;;;15.00;13.40;;;11.40;99.90;;;;;;4938327;29;20028;-91
2023/04/21 00:59:48;;;;;;;15.93;13.27;;;11.50;99.90;;;;;;4968997;28;20051;-91
2023/04/21 01:02:18;;;;;;;15.65;13.85;;;11.50;99.90;;;;;;4975241;28;20443;-90
2023/04/21 01:04:44;;;;;;;15.70;13.93;;;11.50;99.90;;;;;;4974416;28;20038;-90
2023/04/21 01:07:10;;;;;;;17.25;14.55;;;11.60;99.90;;;;;;4974545;28;20030;-91
2023/04/21 01:09:36;;;;;;;16.48;14.68;;;11.40;99.90;;;;;;4974610;28;20476;-90
2023/04/21 01:12:07;;;;;;;16.88;14.52;;;11.50;99.90;;;;;;4973723;28;20094;-91
2023/04/21 01:14:34;;;;;;;16.65;14.85;;;11.40;99.90;;;;;;4974009;28;20078;-91
2023/04/21 01:16:59;;;;;;;16.75;14.93;;;11.50;99.90;;;;;;4974017;28;20035;-91
2023/04/21 01:19:29;;;;;;;15.80;14.10;;;11.50;99.90;;;;;;4974698;28;20030;-90
2023/04/21 01:21:59;;;;;;;16.25;14.50;;;11.50;99.90;;;;;;4973358;28;20031;-90
2023/04/21 01:24:38;;;;;;;16.15;13.93;;;11.60;99.90;;;;;;4974320;28;20034;-91
2023/04/21 01:27:11;;;;;;;18.67;14.70;;;11.70;99.90;;;;;;4975779;28;20027;-90
2023/04/21 01:29:39;;;;;;;15.88;14.18;;;11.60;99.90;;;;;;4974084;28;20033;-91
2023/04/21 01:32:12;;;;;;;16.55;13.80;;;11.60;99.90;;;;;;4974498;28;20468;-91
2023/04/21 01:34:40;;;;;;;17.33;14.60;;;11.50;99.90;;;;;;4974663;28;20029;-90
2023/04/21 01:37:10;;;;;;;15.75;14.02;;;11.40;99.90;;;;;;4976624;28;20062;-91
2023/04/21 01:39:45;;;;;;;16.77;14.98;;;11.40;99.90;;;;;;4984450;28;20069;-90
2023/04/21 01:42:11;;;;;;;17.80;14.35;;;11.40;99.90;;;;;;4984268;28;20023;-91
2023/04/21 01:44:38;;;;;;;16.00;14.30;;;11.30;99.90;;;;;;4984590;28;20507;-91
2023/04/21 01:47:06;;;;;;;17.02;14.68;;;11.10;99.90;;;;;;4981524;28;20081;-89
2023/04/21 01:49:32;;;;;;;19.70;14.45;;;11.20;99.90;;;;;;4974888;28;20464;-89
2023/04/21 01:51:57;;;;;;;16.45;13.88;;;11.30;99.90;;;;;;4973115;28;20043;-90
2023/04/21 01:54:23;;;;;;;16.00;13.82;;;11.30;99.90;;;;;;4973335;28;20077;-91
2023/04/21 01:56:48;;;;;;;15.50;13.82;;;11.40;99.90;;;;;;4973501;28;20031;-91
2023/04/21 01:59:14;;;;;;;16.85;14.05;;;11.40;99.90;;;;;;4973711;28;20050;-91
2023/04/21 02:01:40;;;;;;;16.98;14.90;;;11.40;99.90;;;;;;4973690;28;20082;-90
2023/04/21 02:04:06;;;;;;;15.25;13.68;;;11.50;99.90;;;;;;4973994;28;20030;-92
2023/04/21 02:06:31;;;;;;;15.98;13.30;;;11.20;99.90;;;;;;4973962;28;20034;-90
2023/04/21 02:08:57;;;;;;;18.15;13.35;;;11.30;99.90;;;;;;4974344;28;20054;-90
2023/04/21 02:11:25;;;;;;;15.23;13.48;;;11.30;99.90;;;;;;4973512;28;20049;-91
2023/04/21 02:13:52;;;;;;;14.23;12.65;;;11.30;99.90;;;;;;4972912;28;20045;-90
2023/04/21 02:16:19;;;;;;;15.38;12.77;;;11.20;99.90;;;;;;4973719;28;20592;-91
2023/04/21 02:18:45;;;;;;;14.80;12.90;;;11.20;99.90;;;;;;4973896;28;20102;-90
2023/04/21 02:21:11;;;;;;;14.60;12.55;;;11.20;99.90;;;;;;4973830;28;20019;-91
2023/04/21 02:23:37;;;;;;;15.52;12.90;;;11.40;99.90;;;;;;4974125;28;20026;-90
2023/04/21 02:26:03;;;;;;;13.80;12.40;;;11.40;99.90;;;;;;4972945;28;20031;-90
2023/04/21 02:28:30;;;;;;;14.43;12.10;;;11.20;99.90;;;;;;4973806;28;20077;-92
2023/04/21 02:30:56;;;;;;;15.00;12.85;;;11.30;99.90;;;;;;4973639;28;20031;-91
2023/04/21 02:33:22;;;;;;;14.40;12.32;;;11.20;99.90;;;;;;4974001;28;20045;-91
2023/04/21 02:35:48;;;;;;;13.32;11.93;;;11.20;99.90;;;;;;4973604;28;20049;-90
2023/04/21 02:38:13;;;;;;;15.55;12.20;;;11.10;99.90;;;;;;4973711;28;20492;-91
2023/04/21 02:40:39;;;;;;;15.68;12.68;;;11.20;99.90;;;;;;4972274;28;20027;-91
2023/04/21 02:43:05;;;;;;;14.25;12.73;;;11.20;99.90;;;;;;4974139;28;20277;-91
2023/04/21 02:45:31;;;;;;;17.02;12.57;;;11.10;99.90;;;;;;4973436;28;20110;-90
2023/04/21 02:47:58;;;;;;;13.15;11.80;;;11.10;99.90;;;;;;4972513;28;20503;-91
2023/04/21 02:50:24;;;;;;;13.23;11.77;;;11.00;99.90;;;;;;4976504;28;20116;-91
2023/04/21 02:52:49;;;;;;;13.57;12.05;;;11.10;99.90;;;;;;4977389;28;20073;-91
2023/04/21 02:55:15;;;;;;;13.95;12.45;;;11.10;99.90;;;;;;4976685;28;20027;-91
2023/04/21 02:57:41;;;;;;;14.25;12.27;;;10.80;99.90;;;;;;4977027;28;20038;-91
2023/04/21 03:00:08;;;;;;;13.65;12.20;;;11.10;99.90;;;;;;4976732;28;20043;-91
2023/04/21 03:02:33;;;;;;;13.95;11.48;;;11.10;99.90;;;;;;4977428;28;20557;-90
2023/04/21 03:04:59;;;;;;;14.75;12.02;;;11.00;99.90;;;;;;4975595;28;20031;-91
2023/04/21 03:07:25;;;;;;;15.68;12.60;;;10.90;99.90;;;;;;4977214;28;20034;-90
2023/04/21 03:09:50;;;;;;;15.90;12.65;;;10.80;99.90;;;;;;4975242;28;20121;-91
2023/04/21 03:12:16;;;;;;;15.02;12.27;;;10.70;99.90;;;;;;4977129;28;20074;-91
2023/04/21 03:14:41;;;;;;;15.43;12.65;;;10.60;99.90;;;;;;4976682;28;20030;-90
2023/04/21 03:17:07;;;;;;;15.30;12.32;;;10.50;99.90;;;;;;4976555;28;20550;-91
2023/04/21 03:19:33;;;;;;;15.23;12.40;;;10.60;99.90;;;;;;4976996;28;20023;-90
2023/04/21 03:21:58;;;;;;;14.38;12.32;;;10.50;99.90;;;;;;4975658;28;20402;-91
2023/04/21 03:24:25;;;;;;;13.77;11.68;;;10.50;99.90;;;;;;4976255;28;20019;-91
2023/04/21 03:26:51;;;;;;;15.35;12.82;;;10.50;99.90;;;;;;4976702;28;20077;-91
2023/04/21 03:29:17;;;;;;;14.18;12.45;;;10.60;99.90;;;;;;4976240;28;20034;-91
2023/04/21 03:31:44;;;;;;;14.80;12.82;;;10.60;99.90;;;;;;4976281;28;20049;-91
2023/04/21 03:34:09;;;;;;;13.95;12.48;;;10.80;99.90;;;;;;4975669;28;20046;-90
2023/04/21 03:36:35;;;;;;;12.57;11.27;;;10.50;99.90;;;;;;4976212;28;20488;-91
2023/04/21 03:39:00;;;;;;;14.07;12.55;;;10.60;99.90;;;;;;4975987;28;20070;-91
2023/04/21 03:41:26;;;;;;;15.90;12.25;;;10.50;99.90;;;;;;4976222;28;20484;-91
2023/04/21 03:43:51;;;;;;;14.23;12.20;;;10.40;99.90;;;;;;4976181;28;20030;-91
2023/04/21 03:46:21;;;;;;;15.80;12.45;;;10.60;99.90;;;;;;4976210;28;20046;-90
2023/04/21 03:48:47;;;;;;;14.52;12.38;;;10.60;99.90;;;;;;4976076;28;20019;-91
2023/04/21 03:51:13;;;;;;;15.02;12.27;;;10.70;99.90;;;;;;4975840;28;20042;-91
2023/04/21 03:53:39;;;;;;;16.23;12.15;;;10.80;99.90;;;;;;4975473;28;20472;-90
2023/04/21 03:56:05;;;;;;;15.52;12.77;;;10.80;99.90;;;;;;4974915;28;20057;-90
2023/04/21 03:58:30;;;;;;;14.55;12.35;;;10.80;99.90;;;;;;4974785;28;20038;-90
2023/04/21 04:00:56;;;;;;;14.05;11.82;;;10.80;99.90;;;;;;4975142;28;20035;-91
2023/04/21 04:03:22;;;;;;;14.90;11.75;;;10.80;99.90;;;;;;4976030;28;20023;-91
2023/04/21 04:05:47;;;;;;;15.02;12.48;;;10.80;99.90;;;;;;4974746;28;20117;-90
2023/04/21 04:08:13;;;;;;;14.55;12.45;;;10.80;99.90;;;;;;4975914;28;20128;-90
2023/04/21 04:10:38;;;;;;;13.82;12.32;;;10.70;99.90;;;;;;4975824;28;20447;-91
2023/04/21 04:13:04;;;;;;;15.80;11.77;;;10.70;99.90;;;;;;4974690;28;20031;-91
2023/04/21 04:15:30;;;;;;;14.35;12.27;;;10.60;99.90;;;;;;4975631;28;20030;-91
2023/04/21 04:17:55;;;;;;;16.27;13.18;;;10.50;99.90;;;;;;4976397;28;20093;-91
2023/04/21 04:20:21;;;;;;;16.77;12.90;;;10.40;99.90;;;;;;4975726;28;20026;-90
2023/04/21 04:22:47;;;;;;;15.55;12.02;;;10.30;99.90;;;;;;4975180;28;20027;-90
2023/04/21 04:25:15;;;;;;;17.83;12.82;;;10.30;99.90;;;;;;4974375;28;20034;-90
2023/04/21 04:27:44;;;;;;;14.85;11.93;;;10.60;99.90;;;;;;4974088;28;20027;-91
2023/04/21 04:30:11;;;;;;;15.43;12.85;;;10.20;99.90;;;;;;4975233;28;20110;-91
2023/04/21 04:32:38;;;;;;;14.35;11.90;;;10.20;99.90;;;;;;4974043;28;20043;-90
2023/04/21 04:35:05;;;;;;;12.88;11.48;;;10.20;99.90;;;;;;4974826;28;20023;-90
2023/04/21 04:37:30;;;;;;;16.33;12.80;;;10.30;99.90;;;;;;4974433;28;20077;-90
2023/04/21 04:39:56;;;;;;;15.05;12.55;;;10.30;99.90;;;;;;4973380;28;20060;-91
2023/04/21 04:42:24;;;;;;;14.80;11.85;;;10.40;99.90;;;;;;4975636;28;20034;-92
2023/04/21 04:44:52;;;;;;;15.32;12.90;;;10.50;99.90;;;;;;4974831;28;20095;-90
2023/04/21 04:47:18;;;;;;;16.05;12.43;;;10.60;99.90;;;;;;4974999;28;20027;-91
2023/04/21 04:49:43;;;;;;;13.02;11.32;;;10.50;99.90;;;;;;4974820;28;20027;-90
2023/04/21 04:52:09;;;;;;;15.45;11.43;;;10.50;99.90;;;;;;4973559;28;20035;-91
2023/04/21 04:54:35;;;;;;;12.73;11.27;;;10.50;99.90;;;;;;4974598;28;20038;-91
2023/04/21 04:57:01;;;;;;;12.73;11.35;;;10.40;99.90;;;;;;4974728;28;20027;-90
2023/04/21 04:59:27;;;;;;;14.20;11.15;;;10.30;99.90;;;;;;4973523;28;20054;-91
2023/04/21 05:01:52;;;;;;;13.95;11.77;;;10.20;99.90;;;;;;4973417;28;20125;-90
2023/04/21 05:04:18;;;;;;;13.32;11.07;;;10.20;99.90;;;;;;4973727;28;20117;-91
2023/04/21 05:06:44;;;;;;;15.05;11.52;;;10.30;99.90;;;;;;4974266;28;20098;-91
2023/04/21 05:09:11;;;;;;;13.90;11.02;;;10.10;99.90;;;;;;4974724;28;20023;-90
2023/04/21 05:11:36;;;;;;;12.95;11.27;;;10.20;99.90;;;;;;4974378;28;20125;-90
2023/04/21 05:14:02;;;;;;;12.68;11.38;;;10.20;99.90;;;;;;4974983;28;20109;-91
2023/04/21 05:16:28;;;;;;;12.23;10.90;;;10.40;99.90;;;;;;4974311;28;20030;-89
2023/04/21 05:18:53;;;;;;;12.25;10.88;;;10.40;99.90;;;;;;4973449;28;20027;-90
2023/04/21 05:21:26;;;;;;;15.40;10.85;;;10.80;99.90;;;;;;4974797;28;20165;-91
2023/04/21 05:23:52;;;;;;;12.40;10.73;;;10.80;99.90;;;;;;4974958;28;20035;-91
2023/04/21 05:26:17;;;;;;;12.02;10.50;;;10.80;99.90;;;;;;4973440;28;20031;-91
2023/04/21 05:28:43;;;;;;;11.05;9.52;;;10.90;99.90;;;;;;4973612;28;20023;-90
2023/04/21 05:31:09;;;;;;;11.43;10.23;;;10.90;99.90;;;;;;4974967;28;20031;-91
2023/04/21 05:33:34;;;;;;;13.48;10.25;;;10.70;99.90;;;;;;4974664;28;20031;-90
2023/04/21 05:36:00;;;;;;;13.93;10.48;;;10.70;99.90;;;;;;4973189;28;20065;-91
2023/04/21 05:38:26;;;;;;;12.73;10.80;;;10.90;99.90;;;;;;4973750;28;20026;-91
2023/04/21 05:40:55;;;;;;;11.15;9.68;;;10.90;99.90;;;;;;4974939;28;20102;-91
2023/04/21 05:43:21;;;;;;;11.40;10.23;;;10.90;99.90;;;;;;4973287;28;20057;-91
2023/04/21 05:45:47;;;;;;;12.32;10.60;;;10.90;99.90;;;;;;4974261;28;20030;-90
2023/04/21 05:48:13;;;;;;;12.80;9.90;;;10.90;99.90;;;;;;4972416;28;20035;-89
2023/04/21 05:50:38;;;;;;;14.75;10.95;;;10.80;99.90;;;;;;4972715;28;20071;-91
2023/04/21 05:53:04;;;;;;;12.07;10.23;;;10.50;99.90;;;;;;4972951;28;20089;-90
2023/04/21 05:55:30;;;;;;;12.70;9.85;;;10.70;99.90;;;;;;4974276;28;20074;-89
2023/04/21 05:57:55;;;;;;;13.60;10.70;;;11.10;99.90;;;;;;4973684;28;20046;-89
2023/04/21 06:00:21;;;;;;;12.15;9.70;;;11.10;99.90;;;;;;4973213;28;20385;-89
2023/04/21 06:02:47;;;;;;;14.20;9.70;;;11.30;99.90;;;;;;4973283;28;20038;-88
2023/04/21 06:05:12;;;;;;;12.00;10.20;;;11.20;99.90;;;;;;4972509;28;20480;-89
2023/04/21 06:07:38;;;;;;;11.80;10.50;;;11.00;99.90;;;;;;4973258;28;20114;-89
2023/04/21 06:10:04;;;;;;;10.38;9.27;;;10.80;99.90;;;;;;4973884;28;20369;-89
2023/04/21 06:12:30;;;;;;;11.30;10.07;;;11.00;99.90;;;;;;4972571;28;20491;-89
2023/04/21 06:14:56;;;;;;;10.10;9.10;;;11.20;99.90;;;;;;4972453;28;20038;-90
2023/04/21 06:17:23;;;;;;;10.60;9.50;;;11.10;99.90;;;;;;4973287;28;20031;-89
2023/04/21 06:19:51;;;;;;;11.98;9.88;;;11.20;99.90;;;;;;4972443;28;20031;-89
2023/04/21 06:22:21;;;;;;;11.07;9.57;;;11.20;99.90;;;;;;4973624;28;20102;-89
2023/04/21 06:24:47;;;;;;;10.80;9.57;;;11.30;99.90;;;;;;4974444;28;20400;-89
2023/04/21 06:27:13;;;;;;;12.50;9.50;;;11.20;99.90;;;;;;4976667;28;20031;-89
2023/04/21 06:29:38;;;;;;;13.85;9.75;;;11.30;99.90;;;;;;4976826;28;20092;-88
2023/04/21 06:32:04;;;;;;;11.48;9.95;;;11.40;99.90;;;;;;4977027;28;20173;-90
2023/04/21 06:34:30;;;;;;;14.13;11.30;;;11.40;99.90;;;;;;4977496;28;20420;-92
2023/04/21 06:36:55;;;;;;;12.00;9.65;;;11.50;99.90;;;;;;4978065;28;20046;-89
2023/04/21 06:39:21;;;;;;;11.95;10.68;;;11.50;99.90;;;;;;4977800;28;20019;-88
2023/04/21 06:41:47;;;;;;;12.85;11.50;;;11.40;99.90;;;;;;4976719;28;20372;-93
2023/04/21 06:44:12;;;;;;;14.45;11.55;;;11.40;99.90;;;;;;4976811;28;20023;-88
2023/04/21 06:46:41;;;;;;;15.00;11.93;;;11.30;99.90;;;;;;4976510;28;20078;-89
2023/04/21 06:49:07;;;;;;;16.67;12.30;;;11.20;99.90;;;;;;4977104;28;20058;-89
2023/04/21 06:51:34;;;;;;;20.48;14.13;;;10.90;99.90;;;;;;4975564;28;20031;-89
2023/04/21 06:54:00;;;;;;;19.27;13.77;;;11.00;99.90;;;;;;4975650;28;20042;-89
2023/04/21 06:56:26;;;;;;;17.85;13.80;;;10.90;99.90;;;;;;4977340;28;20034;-89
2023/04/21 06:58:52;;;;;;;16.25;13.65;;;11.00;99.90;;;;;;4977038;28;20058;-89
2023/04/21 07:01:18;;;;;;;17.65;12.65;;;10.90;99.90;;;;;;4976329;28;20031;-89
2023/04/21 07:03:43;;;;;;;16.73;13.48;;;11.00;99.90;;;;;;4975449;28;20054;-89
2023/04/21 07:06:09;;;;;;;15.63;12.77;;;11.00;99.90;;;;;;4976543;28;20109;-89
2023/04/21 07:08:35;;;;;;;18.08;13.63;;;11.20;99.90;;;;;;4975439;28;20030;-89
2023/04/21 07:11:01;;;;;;;17.15;13.13;;;11.20;99.90;;;;;;4976405;28;20045;-89
2023/04/21 07:13:27;;;;;;;15.73;12.55;;;11.20;99.90;;;;;;4976900;28;20480;-89
2023/04/21 07:15:52;;;;;;;17.48;12.70;;;11.20;99.90;;;;;;4976037;28;20030;-89
2023/04/21 07:18:18;;;;;;;14.70;13.18;;;11.20;99.90;;;;;;4976174;28;20136;-89
2023/04/21 07:20:44;;;;;;;14.90;13.30;;;11.20;99.90;;;;;;4976278;28;20328;-88
2023/04/21 07:23:09;;;;;;;14.45;11.77;;;11.40;99.90;;;;;;4976089;28;20038;-89
2023/04/21 07:25:35;;;;;;;15.45;12.50;;;11.60;99.90;;;;;;4975298;28;20118;-89
2023/04/21 07:28:02;;;;;;;14.35;12.68;;;11.70;99.90;;;;;;4975531;28;20122;-89
2023/04/21 07:30:28;;;;;;;15.48;11.77;;;11.70;99.90;;;;;;4975728;28;20046;-89
2023/04/21 07:32:54;;;;;;;13.75;11.95;;;11.70;99.90;;;;;;4976020;28;20049;-88
2023/04/21 07:35:20;;;;;;;13.15;11.82;;;12.00;99.90;;;;;;4975259;28;20102;-88
2023/04/21 07:37:46;;;;;;;13.90;11.25;;;12.20;99.90;;;;;;4975466;28;20069;-88
2023/04/21 07:40:12;;;;;;;12.52;11.23;;;12.20;99.90;;;;;;4976044;28;20491;-88
2023/04/21 07:42:38;;;;;;;11.75;10.52;;;12.40;99.90;;;;;;4976058;28;20035;-89
2023/04/21 07:45:04;;;;;;;11.00;9.90;;;12.60;99.90;;;;;;4975398;28;20518;-88
2023/04/21 07:47:30;;;;;;;10.32;9.25;;;12.70;99.90;;;;;;4975628;28;20027;-90
2023/04/21 07:49:56;;;;;;;10.90;9.80;;;12.70;99.90;;;;;;4976828;28;20062;-88
2023/04/21 07:52:22;;;;;;;10.35;9.35;;;12.70;99.90;;;;;;4976822;28;20038;-89
2023/04/21 07:54:47;;;;;;;10.65;9.38;;;12.80;99.90;;;;;;4975809;28;20376;-89
2023/04/21 07:57:13;;;;;;;10.25;9.25;;;12.90;99.90;;;;;;4975834;28;20031;-89
2023/04/21 07:59:39;;;;;;;9.95;8.70;;;13.20;99.90;;;;;;4973563;28;20055;-89
2023/04/21 08:02:05;;;;;;;9.57;7.95;;;13.40;99.90;;;;;;4975719;28;20041;-89
2023/04/21 08:04:31;;;;;;;8.80;7.68;;;13.60;99.90;;;;;;4975304;28;20039;-89
2023/04/21 08:06:56;;;;;;;7.95;7.07;;;13.60;99.90;;;;;;4975415;28;20035;-89
2023/04/21 08:09:22;;;;;;;8.23;7.15;;;13.60;99.90;;;;;;4975707;28;20027;-89
2023/04/21 08:11:48;;;;;;;7.40;6.70;;;13.50;99.90;;;;;;4975314;28;20030;-88
2023/04/21 08:14:14;;;;;;;7.80;6.50;;;13.60;99.90;;;;;;4974683;28;20030;-88
2023/04/21 08:16:41;;;;;;;7.13;6.43;;;13.50;99.90;;;;;;4974040;28;20030;-88
2023/04/21 08:19:07;;;;;;;8.38;6.35;;;13.60;99.90;;;;;;4974821;28;20027;-88
2023/04/21 08:21:33;;;;;;;7.80;6.47;;;13.60;99.90;;;;;;4974963;28;20030;-88
2023/04/21 08:23:59;;;;;;;7.03;6.32;;;13.80;99.90;;;;;;4974136;28;20023;-88
2023/04/21 08:26:25;;;;;;;7.82;7.03;;;14.20;99.90;;;;;;4974738;28;20384;-89
2023/04/21 08:28:51;;;;;;;9.18;7.60;;;14.30;99.90;;;;;;4974682;28;20030;-88
2023/04/21 08:31:18;;;;;;;8.00;7.20;;;14.30;99.90;;;;;;4974635;28;20083;-88
2023/04/21 08:33:44;;;;;;;10.07;7.45;;;14.30;99.90;;;;;;4974740;28;20092;-89
2023/04/21 08:36:10;;;;;;;8.15;7.35;;;14.60;99.90;;;;;;4974859;28;20027;-88
2023/04/21 08:38:36;;;;;;;7.97;7.22;;;14.70;99.90;;;;;;4974675;28;20033;-88
2023/04/21 08:41:03;;;;;;;7.28;6.57;;;14.80;99.90;;;;;;4974810;28;20031;-89
2023/04/21 08:43:29;;;;;;;8.57;7.78;;;14.90;99.90;;;;;;4974458;28;20263;-89
2023/04/21 08:45:55;;;;;;;7.63;6.50;;;15.30;99.90;;;;;;4974460;28;20035;-88
2023/04/21 08:48:22;;;;;;;7.47;6.68;;;15.40;99.90;;;;;;4974171;28;20391;-89
2023/04/21 08:50:50;;;;;;;7.65;6.95;;;15.30;99.90;;;;;;4974833;28;20041;-88
2023/04/21 08:53:16;;;;;;;7.40;6.70;;;15.50;99.90;;;;;;4974388;28;20470;-89
2023/04/21 08:55:43;;;;;;;7.53;6.50;;;15.80;99.90;;;;;;4973036;28;20488;-89
2023/04/21 08:58:08;;;;;;;6.82;6.22;;;16.10;99.90;;;;;;4972259;28;20035;-89
2023/04/21 09:00:35;;;;;;;7.20;6.50;;;16.20;99.90;;;;;;4973031;28;20072;-88
2023/04/21 09:03:02;;;;;;;7.28;6.60;;;16.00;99.90;;;;;;4974722;28;20027;-89
2023/04/21 09:05:30;;;;;;;7.55;6.75;;;15.70;99.90;;;;;;4974035;28;20448;-89
2023/04/21 09:08:14;;;;;;;8.02;6.82;;;15.70;99.90;;;;;;4974141;28;20027;-88
2023/04/21 09:10:50;;;;;;;6.55;5.97;;;15.80;99.90;;;;;;4974188;28;20058;-88
2023/04/21 09:13:17;;;;;;;7.68;6.78;;;16.00;99.90;;;;;;4973721;28;20062;-88
2023/04/21 09:15:47;;;;;;;6.85;6.15;;;16.20;99.90;;;;;;4973922;28;20031;-88
2023/04/21 09:18:16;;;;;;;8.48;6.60;;;16.30;99.90;;;;;;4974130;28;20396;-89
2023/04/21 09:20:44;;;;;;;6.90;6.10;;;16.60;99.90;;;;;;4973916;28;20053;-88
2023/04/21 09:23:10;;;;;;;6.88;6.28;;;16.90;99.90;;;;;;4973914;28;20027;-88
2023/04/21 09:25:40;;;;;;;6.93;5.85;;;17.00;99.90;;;;;;4973712;28;20085;-89
2023/04/21 09:28:10;;;;;;;6.93;5.57;;;17.00;99.90;;;;;;4972911;28;20031;-89
2023/04/21 09:30:37;;;;;;;6.15;4.88;;;17.20;99.90;;;;;;4973762;28;20034;-89
2023/04/21 09:33:03;;;;;;;4.53;4.13;;;17.50;99.90;;;;;;4973660;28;20043;-89
2023/04/21 09:35:33;;;;;;;5.60;3.70;;;17.60;99.90;;;;;;4973926;28;20499;-89
2023/04/21 09:38:01;;;;;;;3.75;3.30;;;17.60;99.90;;;;;;4973913;28;20504;-89
2023/04/21 09:40:28;;;;;;;4.95;3.33;;;17.50;99.90;;;;;;4973311;28;20157;-88
2023/04/21 09:42:54;;;;;;;4.88;3.35;;;17.60;99.90;;;;;;4973630;28;20023;-88
2023/04/21 09:45:20;;;;;;;3.88;3.00;;;17.40;99.90;;;;;;4972231;28;20030;-89
2023/04/21 09:47:52;;;;;;;4.25;3.40;;;17.10;99.90;;;;;;4973744;28;20023;-88
2023/04/21 09:50:20;;;;;;;3.28;2.85;;;16.90;99.90;;;;;;4972069;28;20436;-88
2023/04/21 09:52:49;;;;;;;4.30;3.17;;;16.90;99.90;;;;;;4973629;28;20039;-89
2023/04/21 09:55:17;;;;;;;4.40;3.40;;;17.00;99.90;;;;;;4973255;28;20452;-89
2023/04/21 09:57:45;;;;;;;3.40;2.83;;;17.30;99.90;;;;;;4973274;28;20488;-89
2023/04/21 10:00:12;;;;;;;3.65;3.05;;;17.60;99.90;;;;;;4972539;28;20050;-89
2023/04/21 10:02:48;;;;;;;3.65;2.78;;;17.80;99.90;;;;;;4973489;28;20026;-89
2023/04/21 10:05:14;;;;;;;5.25;2.90;;;17.70;99.90;;;;;;4973655;28;20030;-89
2023/04/21 10:07:40;;;;;;;3.47;2.72;;;17.70;99.90;;;;;;4973159;28;20487;-89
2023/04/21 10:10:23;;;;;;;4.82;2.67;;;17.60;99.90;;;;;;4972970;28;20030;-89
2023/04/21 10:12:50;;;;;;;3.15;2.63;;;17.70;99.90;;;;;;4973400;28;20126;-88
2023/04/21 10:15:31;;;;;;;3.40;2.60;;;17.90;99.90;;;;;;4973765;28;20033;-89
2023/04/21 10:18:15;;;;;;;3.65;2.70;;;18.00;99.90;;;;;;4971862;28;20125;-88
2023/04/21 10:20:56;;;;;;;4.13;2.70;;;18.20;99.90;;;;;;4973276;28;20038;-89
2023/04/21 10:23:30;;;;;;;4.65;2.70;;;18.40;99.90;;;;;;4973135;28;20399;-88
2023/04/21 10:26:26;;;;;;;2.80;2.28;;;18.60;99.90;;;;;;4971449;28;20061;-89
2023/04/21 10:29:00;;;;;;;4.65;2.83;;;18.40;99.90;;;;;;4932832;29;20122;-89
2023/04/21 10:31:37;;;;;;;3.33;2.75;;;18.10;99.90;;;;;;4932253;29;20051;-89
2023/04/21 10:34:06;;;;;;;2.85;2.38;;;17.90;99.90;;;;;;4932447;29;20036;-88
2023/04/21 10:36:47;;;;;;;4.28;2.38;;;17.90;99.90;;;;;;4932525;29;20497;-88
2023/04/21 10:39:35;;;;;;;3.22;2.50;;;18.10;99.90;;;;;;4932463;29;20054;-89
2023/04/21 10:42:15;;;;;;;3.83;2.22;;;18.40;99.90;;;;;;4932962;29;20038;-89
2023/04/21 10:45:04;;;;;;;4.07;1.90;;;18.90;99.90;;;;;;4932296;29;20035;-88
2023/04/21 10:47:43;;;;;;;4.10;2.50;;;18.80;99.90;;;;;;4914380;29;20405;-89
2023/04/21 10:50:20;;;;;;;3.17;2.20;;;18.90;99.90;;;;;;4913555;29;20043;-89
2023/04/21 10:52:53;;;;;;;2.80;1.80;;;19.50;99.90;;;;;;4912968;29;20056;-89
2023/04/21 10:55:20;;;;;;;2.55;2.03;;;19.70;99.90;;;;;;4913704;29;20028;-89
2023/04/21 10:57:46;;;;;;;5.40;2.00;;;19.50;99.90;;;;;;4913329;29;20600;-88
2023/04/21 11:00:17;;;;;;;2.05;1.85;;;19.20;99.90;;;;;;4930154;29;20135;-88
2023/04/21 11:02:51;;;;;;;2.67;1.90;;;19.30;99.90;;;;;;4932677;29;20046;-89
2023/04/21 11:05:17;;;;;;;2.33;2.05;;;19.40;99.90;;;;;;4947490;28;20750;-89
2023/04/21 11:07:44;;;;;;;4.22;1.90;;;19.10;99.90;;;;;;4972227;28;20046;-89
2023/04/21 11:10:10;;;;;;;3.85;1.80;;;19.00;99.90;;;;;;4973801;28;20027;-89
2023/04/21 11:12:38;;;;;;;3.47;2.00;;;18.70;99.90;;;;;;4975128;28;20411;-90
2023/04/21 11:15:06;;;;;;;2.45;2.00;;;18.80;99.90;;;;;;4976468;28;20113;-89
2023/04/21 11:17:32;;;;;;;3.83;2.20;;;18.90;99.90;;;;;;4976174;28;20114;-90
2023/04/21 11:19:58;;;;;;;2.97;1.80;;;18.80;99.90;;;;;;4975935;28;20081;-89
2023/04/21 11:22:25;;;;;;;2.88;1.85;;;18.80;99.90;;;;;;4974837;28;20464;-89
2023/04/21 11:24:55;;;;;;;3.00;2.22;;;19.20;99.90;;;;;;4976048;28;20034;-89
2023/04/21 11:27:22;;;;;;;9.00;2.30;;;19.40;99.90;;;;;;4975938;28;20531;-89
2023/04/21 11:29:49;;;;;;;4.90;2.70;;;19.40;99.90;;;;;;4976349;28;20027;-89
2023/04/21 11:32:15;;;;;;;5.07;2.25;;;19.30;99.90;;;;;;4975910;28;20074;-89
2023/04/21 11:34:41;;;;;;;6.80;1.98;;;20.10;99.90;;;;;;4974617;28;20037;-89
2023/04/21 11:37:15;;;;;;;4.60;2.08;;;20.10;99.90;;;;;;4975688;28;20035;-89
2023/04/21 11:39:42;;;;;;;2.83;2.13;;;19.90;99.90;;;;;;4975908;28;20023;-89
2023/04/21 11:42:09;;;;;;;3.80;2.15;;;19.90;99.90;;;;;;4975855;28;20037;-88
2023/04/21 11:44:40;;;;;;;2.20;2.03;;;19.80;99.90;;;;;;4975396;28;20106;-89
2023/04/21 11:47:21;;;;;;;3.05;2.47;;;20.20;99.90;;;;;;4989273;28;20034;-89
2023/04/21 11:49:55;;;;;;;3.72;2.30;;;20.30;99.90;;;;;;4995054;28;20105;-89
2023/04/21 11:52:32;;;;;;;4.85;2.30;;;20.50;99.90;;;;;;4994427;28;20049;-89
2023/04/21 11:55:10;;;;;;;3.00;2.10;;;20.30;99.90;;;;;;4995589;28;20062;-89
2023/04/21 11:57:35;;;;;;;4.30;2.50;;;20.50;99.90;;;;;;4995101;28;20053;-89
2023/04/21 12:00:06;;;;;;;2.80;2.13;;;20.20;99.90;;;;;;4977968;28;20042;-89
2023/04/21 12:02:33;;;;;;;4.43;2.60;;;20.70;99.90;;;;;;4975842;28;20551;-89
2023/04/21 12:05:03;;;;;;;3.70;2.40;;;20.90;99.90;;;;;;4975076;28;20026;-89
2023/04/21 12:07:37;;;;;;;3.10;2.33;;;20.50;99.90;;;;;;4975005;28;20148;-89
2023/04/21 12:10:32;;;;;;;3.33;2.45;;;20.00;99.90;;;;;;4975165;28;20027;-89
2023/04/21 12:12:58;;;;;;;3.65;2.63;;;19.50;99.90;;;;;;4970488;28;20403;-89
2023/04/21 12:15:23;;;;;;;2.72;2.50;;;19.30;99.90;;;;;;4975196;28;20037;-89
2023/04/21 12:17:51;;;;;;;4.97;2.78;;;18.90;99.90;;;;;;4975289;28;20392;-89
2023/04/21 12:20:22;;;;;;;4.43;2.70;;;18.90;99.90;;;;;;4974714;28;20046;-90
2023/04/21 12:22:49;;;;;;;4.53;2.40;;;19.00;99.90;;;;;;4974315;28;20042;-89
2023/04/21 12:25:14;;;;;;;3.95;2.63;;;19.00;99.90;;;;;;4973968;28;20480;-89
2023/04/21 12:27:57;;;;;;;3.28;2.35;;;19.00;99.90;;;;;;4974913;28;20042;-89
2023/04/21 12:30:23;;;;;;;6.20;2.63;;;19.30;99.90;;;;;;4973429;28;20019;-88
2023/04/21 12:32:50;;;;;;;4.22;2.75;;;19.30;99.90;;;;;;4974758;28;20046;-89
2023/04/21 12:35:16;;;;;;;5.03;2.92;;;19.00;99.90;;;;;;4974440;28;20077;-88
2023/04/21 12:37:43;;;;;;;2.90;2.58;;;18.80;99.90;;;;;;4974826;28;20030;-89